Aviation Digital Data Service (ADDS)

Output produced by TAFs form (0452 UTC 30 March 2017)
found at http://www.aviationweather.gov/adds/tafs/
 
METAR text: RJDT 300400Z 13009KT 9999 FEW025 SCT030 16/09 Q1019
Conditions at: RJDT (TSUSHIMA AIRPORT, JP) observed 0400 UTC 30 March 2017
Temperature: 16.0°C (61°F)
Dewpoint: 9.0°C (48°F) [RH = 63%]
Pressure (altimeter): 30.09 inches Hg (1019.0 mb)
Winds: from the SE (130 degrees) at 10 MPH (9 knots; 4.7 m/s)
Visibility: 6 or more miles (10+ km)
Ceiling: at least 12,000 feet AGL
Clouds: few clouds at 2500 feet AGL
scattered clouds at 3000 feet AGL
Weather: no significant weather observed at this time